sensor_id;sensor_type;location;lat;lon;timestamp;temperature;humidity
14016;DHT22;7083;48.854;9.158;2023-05-07T00:02:12;11.70;99.90
14016;DHT22;7083;48.854;9.158;2023-05-07T00:04:39;11.70;99.90
14016;DHT22;7083;48.854;9.158;2023-05-07T00:07:06;11.70;99.90
14016;DHT22;7083;48.854;9.158;2023-05-07T00:09:33;11.70;99.90
14016;DHT22;7083;48.854;9.158;2023-05-07T00:11:59;11.70;99.90
14016;DHT22;7083;48.854;9.158;2023-05-07T00:14:27;11.80;99.90
14016;DHT22;7083;48.854;9.158;2023-05-07T00:16:54;11.80;99.90
14016;DHT22;7083;48.854;9.158;2023-05-07T00:19:21;11.80;99.90
14016;DHT22;7083;48.854;9.158;2023-05-07T00:21:48;11.80;99.90
14016;DHT22;7083;48.854;9.158;2023-05-07T00:24:14;11.90;99.90
14016;DHT22;7083;48.854;9.158;2023-05-07T00:26:41;11.90;99.90
14016;DHT22;7083;48.854;9.158;2023-05-07T00:29:08;11.90;99.90
14016;DHT22;7083;48.854;9.158;2023-05-07T00:31:36;11.80;99.90
14016;DHT22;7083;48.854;9.158;2023-05-07T00:34:02;11.80;99.90
14016;DHT22;7083;48.854;9.158;2023-05-07T00:36:29;11.80;99.90
14016;DHT22;7083;48.854;9.158;2023-05-07T00:38:57;11.70;99.90
14016;DHT22;7083;48.854;9.158;2023-05-07T00:41:25;11.70;99.90
14016;DHT22;7083;48.854;9.158;2023-05-07T00:43:52;11.60;99.90
14016;DHT22;7083;48.854;9.158;2023-05-07T00:46:20;11.60;99.90
14016;DHT22;7083;48.854;9.158;2023-05-07T00:48:49;11.50;99.90
14016;DHT22;7083;48.854;9.158;2023-05-07T00:51:17;11.50;99.90
14016;DHT22;7083;48.854;9.158;2023-05-07T00:53:44;11.40;99.90
14016;DHT22;7083;48.854;9.158;2023-05-07T00:56:11;11.40;99.90
14016;DHT22;7083;48.854;9.158;2023-05-07T00:58:38;11.40;99.90
14016;DHT22;7083;48.854;9.158;2023-05-07T01:01:05;11.30;99.90
14016;DHT22;7083;48.854;9.158;2023-05-07T01:03:31;11.30;99.90
14016;DHT22;7083;48.854;9.158;2023-05-07T01:06:00;11.30;99.90
14016;DHT22;7083;48.854;9.158;2023-05-07T01:08:29;11.30;99.90
14016;DHT22;7083;48.854;9.158;2023-05-07T01:10:56;11.20;99.90
14016;DHT22;7083;48.854;9.158;2023-05-07T01:13:24;11.20;99.90
14016;DHT22;7083;48.854;9.158;2023-05-07T01:15:51;11.20;99.90
14016;DHT22;7083;48.854;9.158;2023-05-07T01:18:18;11.20;99.90
14016;DHT22;7083;48.854;9.158;2023-05-07T01:20:45;11.20;99.90
14016;DHT22;7083;48.854;9.158;2023-05-07T01:23:13;11.20;99.90
14016;DHT22;7083;48.854;9.158;2023-05-07T01:25:41;11.20;99.90
14016;DHT22;7083;48.854;9.158;2023-05-07T01:28:07;11.10;99.90
14016;DHT22;7083;48.854;9.158;2023-05-07T01:30:34;11.10;99.90
14016;DHT22;7083;48.854;9.158;2023-05-07T01:33:04;11.10;99.90
14016;DHT22;7083;48.854;9.158;2023-05-07T01:35:37;11.10;99.90
14016;DHT22;7083;48.854;9.158;2023-05-07T01:38:05;11.20;99.90
14016;DHT22;7083;48.854;9.158;2023-05-07T01:40:33;11.20;99.90
14016;DHT22;7083;48.854;9.158;2023-05-07T01:43:01;11.30;99.90
14016;DHT22;7083;48.854;9.158;2023-05-07T01:45:28;11.30;99.90
14016;DHT22;7083;48.854;9.158;2023-05-07T01:47:58;11.30;99.90
14016;DHT22;7083;48.854;9.158;2023-05-07T01:50:25;11.40;99.90
14016;DHT22;7083;48.854;9.158;2023-05-07T01:52:52;11.40;99.90
14016;DHT22;7083;48.854;9.158;2023-05-07T01:55:19;11.40;99.90
14016;DHT22;7083;48.854;9.158;2023-05-07T01:57:47;11.40;99.90
14016;DHT22;7083;48.854;9.158;2023-05-07T02:00:14;11.40;99.90
14016;DHT22;7083;48.854;9.158;2023-05-07T02:02:41;11.40;99.90
14016;DHT22;7083;48.854;9.158;2023-05-07T02:05:08;11.50;99.90
14016;DHT22;7083;48.854;9.158;2023-05-07T02:07:35;11.50;99.90
14016;DHT22;7083;48.854;9.158;2023-05-07T02:10:02;11.50;99.90
14016;DHT22;7083;48.854;9.158;2023-05-07T02:12:29;11.60;99.90
14016;DHT22;7083;48.854;9.158;2023-05-07T02:14:57;11.60;99.90
14016;DHT22;7083;48.854;9.158;2023-05-07T02:17:24;11.70;99.90
14016;DHT22;7083;48.854;9.158;2023-05-07T02:19:50;11.70;99.90
14016;DHT22;7083;48.854;9.158;2023-05-07T02:22:17;11.70;99.90
14016;DHT22;7083;48.854;9.158;2023-05-07T02:24:44;11.70;99.90
14016;DHT22;7083;48.854;9.158;2023-05-07T02:27:11;11.60;99.90
14016;DHT22;7083;48.854;9.158;2023-05-07T02:29:39;11.50;99.90
14016;DHT22;7083;48.854;9.158;2023-05-07T02:32:07;11.50;99.90
14016;DHT22;7083;48.854;9.158;2023-05-07T02:34:34;11.40;99.90
14016;DHT22;7083;48.854;9.158;2023-05-07T02:37:01;11.40;99.90
14016;DHT22;7083;48.854;9.158;2023-05-07T02:39:27;11.30;99.90
14016;DHT22;7083;48.854;9.158;2023-05-07T02:41:54;11.20;99.90
14016;DHT22;7083;48.854;9.158;2023-05-07T02:44:21;11.20;99.90
14016;DHT22;7083;48.854;9.158;2023-05-07T02:46:47;11.10;99.90
14016;DHT22;7083;48.854;9.158;2023-05-07T02:49:15;11.00;99.90
14016;DHT22;7083;48.854;9.158;2023-05-07T02:51:42;11.00;99.90
14016;DHT22;7083;48.854;9.158;2023-05-07T02:54:09;11.00;99.90
14016;DHT22;7083;48.854;9.158;2023-05-07T02:56:35;10.90;99.90
14016;DHT22;7083;48.854;9.158;2023-05-07T02:59:02;10.90;99.90
14016;DHT22;7083;48.854;9.158;2023-05-07T03:01:28;10.80;99.90
14016;DHT22;7083;48.854;9.158;2023-05-07T03:03:55;10.80;99.90
14016;DHT22;7083;48.854;9.158;2023-05-07T03:06:23;10.70;99.90
14016;DHT22;7083;48.854;9.158;2023-05-07T03:08:50;10.70;99.90
14016;DHT22;7083;48.854;9.158;2023-05-07T03:11:17;10.60;99.90
14016;DHT22;7083;48.854;9.158;2023-05-07T03:13:43;10.60;99.90
14016;DHT22;7083;48.854;9.158;2023-05-07T03:16:10;10.50;99.90
14016;DHT22;7083;48.854;9.158;2023-05-07T03:18:37;10.50;99.90
14016;DHT22;7083;48.854;9.158;2023-05-07T03:21:03;10.50;99.90
14016;DHT22;7083;48.854;9.158;2023-05-07T03:23:31;10.40;99.90
14016;DHT22;7083;48.854;9.158;2023-05-07T03:25:58;10.40;99.90
14016;DHT22;7083;48.854;9.158;2023-05-07T03:28:25;10.30;99.90
14016;DHT22;7083;48.854;9.158;2023-05-07T03:30:51;10.30;99.90
14016;DHT22;7083;48.854;9.158;2023-05-07T03:33:18;10.30;99.90
14016;DHT22;7083;48.854;9.158;2023-05-07T03:35:45;10.20;99.90
14016;DHT22;7083;48.854;9.158;2023-05-07T03:38:11;10.20;99.90
14016;DHT22;7083;48.854;9.158;2023-05-07T03:40:39;10.20;99.90
14016;DHT22;7083;48.854;9.158;2023-05-07T03:43:06;10.20;99.90
14016;DHT22;7083;48.854;9.158;2023-05-07T03:45:33;10.20;99.90
14016;DHT22;7083;48.854;9.158;2023-05-07T03:48:00;10.10;99.90
14016;DHT22;7083;48.854;9.158;2023-05-07T03:50:26;10.10;99.90
14016;DHT22;7083;48.854;9.158;2023-05-07T03:52:53;10.10;99.90
14016;DHT22;7083;48.854;9.158;2023-05-07T03:55:20;10.10;99.90
14016;DHT22;7083;48.854;9.158;2023-05-07T03:57:48;10.10;99.90
14016;DHT22;7083;48.854;9.158;2023-05-07T04:00:15;10.10;99.90
14016;DHT22;7083;48.854;9.158;2023-05-07T04:02:42;10.10;99.90
14016;DHT22;7083;48.854;9.158;2023-05-07T04:05:08;10.10;99.90
14016;DHT22;7083;48.854;9.158;2023-05-07T04:07:35;10.10;99.90
14016;DHT22;7083;48.854;9.158;2023-05-07T04:10:02;10.10;99.90
14016;DHT22;7083;48.854;9.158;2023-05-07T04:12:29;10.10;99.90
14016;DHT22;7083;48.854;9.158;2023-05-07T04:14:57;10.10;99.90
14016;DHT22;7083;48.854;9.158;2023-05-07T04:17:23;10.10;99.90
14016;DHT22;7083;48.854;9.158;2023-05-07T04:19:50;10.10;99.90
14016;DHT22;7083;48.854;9.158;2023-05-07T04:22:16;10.10;99.90
14016;DHT22;7083;48.854;9.158;2023-05-07T04:24:43;10.10;99.90
14016;DHT22;7083;48.854;9.158;2023-05-07T04:27:10;10.10;99.90
14016;DHT22;7083;48.854;9.158;2023-05-07T04:29:37;10.20;99.90
14016;DHT22;7083;48.854;9.158;2023-05-07T04:32:08;10.20;99.90
14016;DHT22;7083;48.854;9.158;2023-05-07T04:34:35;10.20;99.90
14016;DHT22;7083;48.854;9.158;2023-05-07T04:37:02;10.30;99.90
14016;DHT22;7083;48.854;9.158;2023-05-07T04:39:28;10.40;99.90
14016;DHT22;7083;48.854;9.158;2023-05-07T04:41:55;10.40;99.90
14016;DHT22;7083;48.854;9.158;2023-05-07T04:44:22;10.50;99.90
14016;DHT22;7083;48.854;9.158;2023-05-07T04:46:48;10.60;99.90
14016;DHT22;7083;48.854;9.158;2023-05-07T04:49:16;10.60;99.90
14016;DHT22;7083;48.854;9.158;2023-05-07T04:51:43;10.70;99.90
14016;DHT22;7083;48.854;9.158;2023-05-07T04:54:10;10.80;99.90
14016;DHT22;7083;48.854;9.158;2023-05-07T04:56:36;10.80;99.90
14016;DHT22;7083;48.854;9.158;2023-05-07T04:59:03;10.90;99.90
14016;DHT22;7083;48.854;9.158;2023-05-07T05:01:31;10.90;99.90
14016;DHT22;7083;48.854;9.158;2023-05-07T05:03:57;11.00;99.90
14016;DHT22;7083;48.854;9.158;2023-05-07T05:06:26;11.00;99.90
14016;DHT22;7083;48.854;9.158;2023-05-07T05:08:53;11.10;99.90
14016;DHT22;7083;48.854;9.158;2023-05-07T05:11:20;11.10;99.90
14016;DHT22;7083;48.854;9.158;2023-05-07T05:13:46;11.10;99.90
14016;DHT22;7083;48.854;9.158;2023-05-07T05:16:14;11.20;99.90
14016;DHT22;7083;48.854;9.158;2023-05-07T05:18:41;11.20;99.90
14016;DHT22;7083;48.854;9.158;2023-05-07T05:21:07;11.20;99.90
14016;DHT22;7083;48.854;9.158;2023-05-07T05:23:35;11.30;99.90
14016;DHT22;7083;48.854;9.158;2023-05-07T05:26:02;11.40;99.90
14016;DHT22;7083;48.854;9.158;2023-05-07T05:28:29;11.40;99.90
14016;DHT22;7083;48.854;9.158;2023-05-07T05:30:55;11.50;99.90
14016;DHT22;7083;48.854;9.158;2023-05-07T05:33:22;11.60;99.90
14016;DHT22;7083;48.854;9.158;2023-05-07T05:35:49;11.80;99.90
14016;DHT22;7083;48.854;9.158;2023-05-07T05:38:16;11.90;99.90
14016;DHT22;7083;48.854;9.158;2023-05-07T05:40:44;12.10;99.90
14016;DHT22;7083;48.854;9.158;2023-05-07T05:43:11;12.20;99.90
14016;DHT22;7083;48.854;9.158;2023-05-07T05:45:37;12.40;99.90
14016;DHT22;7083;48.854;9.158;2023-05-07T05:48:04;12.60;99.90
14016;DHT22;7083;48.854;9.158;2023-05-07T05:50:31;12.80;99.90
14016;DHT22;7083;48.854;9.158;2023-05-07T05:52:57;13.00;99.90
14016;DHT22;7083;48.854;9.158;2023-05-07T05:55:31;13.20;99.90
14016;DHT22;7083;48.854;9.158;2023-05-07T05:58:01;13.30;99.90
14016;DHT22;7083;48.854;9.158;2023-05-07T06:00:28;13.30;99.90
14016;DHT22;7083;48.854;9.158;2023-05-07T06:02:57;13.50;99.90
14016;DHT22;7083;48.854;9.158;2023-05-07T06:05:24;13.60;99.90
14016;DHT22;7083;48.854;9.158;2023-05-07T06:07:51;13.80;99.90
14016;DHT22;7083;48.854;9.158;2023-05-07T06:10:17;14.00;99.90
14016;DHT22;7083;48.854;9.158;2023-05-07T06:12:44;14.10;99.90
14016;DHT22;7083;48.854;9.158;2023-05-07T06:15:12;14.20;99.90
14016;DHT22;7083;48.854;9.158;2023-05-07T06:17:40;14.40;99.90
14016;DHT22;7083;48.854;9.158;2023-05-07T06:20:10;14.40;99.90
14016;DHT22;7083;48.854;9.158;2023-05-07T06:22:37;14.50;99.90
14016;DHT22;7083;48.854;9.158;2023-05-07T06:25:04;14.60;99.90
14016;DHT22;7083;48.854;9.158;2023-05-07T06:27:31;14.60;99.90
14016;DHT22;7083;48.854;9.158;2023-05-07T06:29:58;14.70;99.90
14016;DHT22;7083;48.854;9.158;2023-05-07T06:32:26;14.70;99.90
14016;DHT22;7083;48.854;9.158;2023-05-07T06:34:52;14.60;99.90
14016;DHT22;7083;48.854;9.158;2023-05-07T06:37:19;14.60;99.90
14016;DHT22;7083;48.854;9.158;2023-05-07T06:39:49;14.60;99.90
14016;DHT22;7083;48.854;9.158;2023-05-07T06:42:16;14.60;99.90
14016;DHT22;7083;48.854;9.158;2023-05-07T06:44:42;14.60;99.90
14016;DHT22;7083;48.854;9.158;2023-05-07T06:47:09;14.60;99.90
14016;DHT22;7083;48.854;9.158;2023-05-07T06:49:37;14.60;99.90
14016;DHT22;7083;48.854;9.158;2023-05-07T06:52:04;14.60;99.90
14016;DHT22;7083;48.854;9.158;2023-05-07T06:54:30;14.70;99.90
14016;DHT22;7083;48.854;9.158;2023-05-07T06:56:57;14.70;99.90
14016;DHT22;7083;48.854;9.158;2023-05-07T06:59:24;14.80;99.90
14016;DHT22;7083;48.854;9.158;2023-05-07T07:01:50;14.90;99.90
14016;DHT22;7083;48.854;9.158;2023-05-07T07:04:17;14.90;99.90
14016;DHT22;7083;48.854;9.158;2023-05-07T07:06:45;15.00;99.90
14016;DHT22;7083;48.854;9.158;2023-05-07T07:09:14;15.10;99.90
14016;DHT22;7083;48.854;9.158;2023-05-07T07:11:40;15.20;99.90
14016;DHT22;7083;48.854;9.158;2023-05-07T07:14:07;15.30;99.90
14016;DHT22;7083;48.854;9.158;2023-05-07T07:16:34;15.40;99.90
14016;DHT22;7083;48.854;9.158;2023-05-07T07:19:00;15.60;99.90
14016;DHT22;7083;48.854;9.158;2023-05-07T07:21:27;15.80;99.90
14016;DHT22;7083;48.854;9.158;2023-05-07T07:23:55;15.90;99.90
14016;DHT22;7083;48.854;9.158;2023-05-07T07:26:22;16.10;99.90
14016;DHT22;7083;48.854;9.158;2023-05-07T07:28:48;16.30;99.90
14016;DHT22;7083;48.854;9.158;2023-05-07T07:31:15;16.50;99.90
14016;DHT22;7083;48.854;9.158;2023-05-07T07:33:42;16.70;99.90
14016;DHT22;7083;48.854;9.158;2023-05-07T07:36:09;16.90;99.90
14016;DHT22;7083;48.854;9.158;2023-05-07T07:38:36;17.20;99.90
14016;DHT22;7083;48.854;9.158;2023-05-07T07:41:04;17.50;99.90
14016;DHT22;7083;48.854;9.158;2023-05-07T07:43:31;17.80;99.90
14016;DHT22;7083;48.854;9.158;2023-05-07T07:45:57;18.00;99.90
14016;DHT22;7083;48.854;9.158;2023-05-07T07:48:24;18.20;99.90
14016;DHT22;7083;48.854;9.158;2023-05-07T07:50:51;18.40;99.90
14016;DHT22;7083;48.854;9.158;2023-05-07T07:53:18;18.50;99.90
14016;DHT22;7083;48.854;9.158;2023-05-07T07:55:44;18.70;99.90
14016;DHT22;7083;48.854;9.158;2023-05-07T07:58:12;18.80;99.90
14016;DHT22;7083;48.854;9.158;2023-05-07T08:00:39;18.90;99.90
14016;DHT22;7083;48.854;9.158;2023-05-07T08:03:08;19.10;99.90
14016;DHT22;7083;48.854;9.158;2023-05-07T08:05:35;19.10;99.90
14016;DHT22;7083;48.854;9.158;2023-05-07T08:08:02;19.20;99.90
14016;DHT22;7083;48.854;9.158;2023-05-07T08:10:28;19.20;99.90
14016;DHT22;7083;48.854;9.158;2023-05-07T08:12:59;19.30;99.90
14016;DHT22;7083;48.854;9.158;2023-05-07T08:15:27;19.40;99.90
14016;DHT22;7083;48.854;9.158;2023-05-07T08:17:53;19.50;99.90
14016;DHT22;7083;48.854;9.158;2023-05-07T08:20:21;19.60;99.70
14016;DHT22;7083;48.854;9.158;2023-05-07T08:22:48;19.60;99.30
14016;DHT22;7083;48.854;9.158;2023-05-07T08:25:14;19.60;97.70
14016;DHT22;7083;48.854;9.158;2023-05-07T08:27:41;19.70;98.00
14016;DHT22;7083;48.854;9.158;2023-05-07T08:30:09;19.70;97.90
14016;DHT22;7083;48.854;9.158;2023-05-07T08:32:37;19.80;97.90
14016;DHT22;7083;48.854;9.158;2023-05-07T08:35:04;19.70;97.80
14016;DHT22;7083;48.854;9.158;2023-05-07T08:37:31;19.70;97.20
14016;DHT22;7083;48.854;9.158;2023-05-07T08:39:58;19.70;97.40
14016;DHT22;7083;48.854;9.158;2023-05-07T08:42:24;19.70;97.70
14016;DHT22;7083;48.854;9.158;2023-05-07T08:44:55;19.80;97.70
14016;DHT22;7083;48.854;9.158;2023-05-07T08:47:29;19.90;97.20
14016;DHT22;7083;48.854;9.158;2023-05-07T08:49:57;19.90;96.40
14016;DHT22;7083;48.854;9.158;2023-05-07T08:52:25;20.00;95.80
14016;DHT22;7083;48.854;9.158;2023-05-07T08:54:52;20.10;95.90
14016;DHT22;7083;48.854;9.158;2023-05-07T08:57:19;20.30;94.10
14016;DHT22;7083;48.854;9.158;2023-05-07T08:59:47;20.40;94.00
14016;DHT22;7083;48.854;9.158;2023-05-07T09:02:13;20.50;94.50
14016;DHT22;7083;48.854;9.158;2023-05-07T09:04:40;20.70;94.70
14016;DHT22;7083;48.854;9.158;2023-05-07T09:07:08;20.80;94.30
14016;DHT22;7083;48.854;9.158;2023-05-07T09:09:35;20.90;93.50
14016;DHT22;7083;48.854;9.158;2023-05-07T09:12:02;20.90;93.80
14016;DHT22;7083;48.854;9.158;2023-05-07T09:14:29;21.10;93.90
14016;DHT22;7083;48.854;9.158;2023-05-07T09:16:56;21.20;94.00
14016;DHT22;7083;48.854;9.158;2023-05-07T09:19:23;21.20;93.10
14016;DHT22;7083;48.854;9.158;2023-05-07T09:21:51;21.20;93.20
14016;DHT22;7083;48.854;9.158;2023-05-07T09:24:25;21.30;93.00
14016;DHT22;7083;48.854;9.158;2023-05-07T09:26:52;21.40;92.50
14016;DHT22;7083;48.854;9.158;2023-05-07T09:29:18;21.40;92.00
14016;DHT22;7083;48.854;9.158;2023-05-07T09:31:45;21.50;92.60
14016;DHT22;7083;48.854;9.158;2023-05-07T09:34:12;21.50;92.10
14016;DHT22;7083;48.854;9.158;2023-05-07T09:36:38;21.40;91.80
14016;DHT22;7083;48.854;9.158;2023-05-07T09:39:05;21.40;91.90
14016;DHT22;7083;48.854;9.158;2023-05-07T09:41:43;21.30;91.80
14016;DHT22;7083;48.854;9.158;2023-05-07T09:44:09;21.40;91.90
14016;DHT22;7083;48.854;9.158;2023-05-07T09:46:38;21.50;92.00
14016;DHT22;7083;48.854;9.158;2023-05-07T09:49:07;21.50;91.50
14016;DHT22;7083;48.854;9.158;2023-05-07T09:51:41;21.50;91.30
14016;DHT22;7083;48.854;9.158;2023-05-07T09:54:10;21.50;91.50
14016;DHT22;7083;48.854;9.158;2023-05-07T09:56:39;21.60;91.10
14016;DHT22;7083;48.854;9.158;2023-05-07T09:59:08;21.60;91.10
14016;DHT22;7083;48.854;9.158;2023-05-07T10:01:37;21.70;91.10
14016;DHT22;7083;48.854;9.158;2023-05-07T10:04:05;21.70;90.00
14016;DHT22;7083;48.854;9.158;2023-05-07T10:06:34;21.80;90.10
14016;DHT22;7083;48.854;9.158;2023-05-07T10:09:01;21.90;90.40
14016;DHT22;7083;48.854;9.158;2023-05-07T10:11:28;22.00;89.90
14016;DHT22;7083;48.854;9.158;2023-05-07T10:13:57;22.10;89.40
14016;DHT22;7083;48.854;9.158;2023-05-07T10:16:24;22.20;89.20
14016;DHT22;7083;48.854;9.158;2023-05-07T10:18:53;22.40;88.80
14016;DHT22;7083;48.854;9.158;2023-05-07T10:21:22;22.70;89.40
14016;DHT22;7083;48.854;9.158;2023-05-07T10:23:51;22.80;88.10
14016;DHT22;7083;48.854;9.158;2023-05-07T10:26:19;23.00;86.50
14016;DHT22;7083;48.854;9.158;2023-05-07T10:28:50;23.20;85.20
14016;DHT22;7083;48.854;9.158;2023-05-07T10:31:36;23.40;84.00
14016;DHT22;7083;48.854;9.158;2023-05-07T10:34:08;23.60;83.00
14016;DHT22;7083;48.854;9.158;2023-05-07T10:36:36;23.70;84.30
14016;DHT22;7083;48.854;9.158;2023-05-07T10:39:05;23.80;84.90
14016;DHT22;7083;48.854;9.158;2023-05-07T10:41:32;23.80;84.30
14016;DHT22;7083;48.854;9.158;2023-05-07T10:44:00;23.50;82.20
14016;DHT22;7083;48.854;9.158;2023-05-07T10:46:29;23.50;83.00
14016;DHT22;7083;48.854;9.158;2023-05-07T10:49:09;23.50;85.30
14016;DHT22;7083;48.854;9.158;2023-05-07T10:51:37;23.50;83.00
14016;DHT22;7083;48.854;9.158;2023-05-07T10:54:22;23.60;82.50
14016;DHT22;7083;48.854;9.158;2023-05-07T10:56:52;23.70;84.00
14016;DHT22;7083;48.854;9.158;2023-05-07T10:59:38;23.70;85.80
14016;DHT22;7083;48.854;9.158;2023-05-07T11:02:10;23.60;85.30
14016;DHT22;7083;48.854;9.158;2023-05-07T11:04:39;23.50;85.70
14016;DHT22;7083;48.854;9.158;2023-05-07T11:07:29;23.40;84.20
14016;DHT22;7083;48.854;9.158;2023-05-07T11:10:00;23.40;86.50
14016;DHT22;7083;48.854;9.158;2023-05-07T11:12:54;23.30;85.80
14016;DHT22;7083;48.854;9.158;2023-05-07T11:15:38;23.30;85.10
14016;DHT22;7083;48.854;9.158;2023-05-07T11:18:06;23.30;86.10
14016;DHT22;7083;48.854;9.158;2023-05-07T11:20:56;23.30;87.80
14016;DHT22;7083;48.854;9.158;2023-05-07T11:26:43;23.20;90.00
14016;DHT22;7083;48.854;9.158;2023-05-07T11:29:12;23.20;90.30
14016;DHT22;7083;48.854;9.158;2023-05-07T11:31:39;23.20;90.40
14016;DHT22;7083;48.854;9.158;2023-05-07T11:34:08;23.20;88.20
14016;DHT22;7083;48.854;9.158;2023-05-07T11:36:36;23.20;90.50
14016;DHT22;7083;48.854;9.158;2023-05-07T11:39:23;23.30;91.00
14016;DHT22;7083;48.854;9.158;2023-05-07T11:41:51;23.40;87.60
14016;DHT22;7083;48.854;9.158;2023-05-07T11:44:17;23.30;89.50
14016;DHT22;7083;48.854;9.158;2023-05-07T11:46:44;23.40;90.20
14016;DHT22;7083;48.854;9.158;2023-05-07T11:49:13;23.30;88.30
14016;DHT22;7083;48.854;9.158;2023-05-07T11:51:39;23.30;89.90
14016;DHT22;7083;48.854;9.158;2023-05-07T11:54:08;23.20;90.20
14016;DHT22;7083;48.854;9.158;2023-05-07T11:56:37;23.20;90.00
14016;DHT22;7083;48.854;9.158;2023-05-07T11:59:04;23.20;90.80
14016;DHT22;7083;48.854;9.158;2023-05-07T12:01:30;23.20;91.10
14016;DHT22;7083;48.854;9.158;2023-05-07T12:03:57;23.10;90.80
14016;DHT22;7083;48.854;9.158;2023-05-07T12:06:25;23.00;91.40
14016;DHT22;7083;48.854;9.158;2023-05-07T12:08:53;23.00;92.30
14016;DHT22;7083;48.854;9.158;2023-05-07T12:11:22;22.90;92.30
14016;DHT22;7083;48.854;9.158;2023-05-07T12:13:50;22.90;92.40
14016;DHT22;7083;48.854;9.158;2023-05-07T12:16:17;22.80;93.50
14016;DHT22;7083;48.854;9.158;2023-05-07T12:18:45;22.70;94.00
14016;DHT22;7083;48.854;9.158;2023-05-07T12:21:12;22.60;93.70
14016;DHT22;7083;48.854;9.158;2023-05-07T12:23:40;22.50;93.40
14016;DHT22;7083;48.854;9.158;2023-05-07T12:26:07;22.40;93.60
14016;DHT22;7083;48.854;9.158;2023-05-07T12:28:38;22.30;94.50
14016;DHT22;7083;48.854;9.158;2023-05-07T12:31:06;22.30;94.30
14016;DHT22;7083;48.854;9.158;2023-05-07T12:33:33;22.20;94.90
14016;DHT22;7083;48.854;9.158;2023-05-07T12:36:05;22.10;95.30
14016;DHT22;7083;48.854;9.158;2023-05-07T12:38:36;22.00;95.60
14016;DHT22;7083;48.854;9.158;2023-05-07T12:41:05;21.90;95.00
14016;DHT22;7083;48.854;9.158;2023-05-07T12:43:32;21.80;95.50
14016;DHT22;7083;48.854;9.158;2023-05-07T12:46:01;21.70;95.60
14016;DHT22;7083;48.854;9.158;2023-05-07T12:48:28;21.70;92.20
14016;DHT22;7083;48.854;9.158;2023-05-07T12:50:56;21.60;92.30
14016;DHT22;7083;48.854;9.158;2023-05-07T12:53:23;21.50;92.30
14016;DHT22;7083;48.854;9.158;2023-05-07T12:55:52;21.30;91.90
14016;DHT22;7083;48.854;9.158;2023-05-07T12:58:24;21.10;92.20
14016;DHT22;7083;48.854;9.158;2023-05-07T13:00:51;21.00;93.70
14016;DHT22;7083;48.854;9.158;2023-05-07T13:03:22;20.70;94.90
14016;DHT22;7083;48.854;9.158;2023-05-07T13:05:50;20.60;93.60
14016;DHT22;7083;48.854;9.158;2023-05-07T13:08:24;20.30;93.80
14016;DHT22;7083;48.854;9.158;2023-05-07T13:10:51;19.90;95.00
14016;DHT22;7083;48.854;9.158;2023-05-07T13:13:17;19.70;95.70
14016;DHT22;7083;48.854;9.158;2023-05-07T13:15:45;19.50;96.00
14016;DHT22;7083;48.854;9.158;2023-05-07T13:18:12;19.30;96.50
14016;DHT22;7083;48.854;9.158;2023-05-07T13:20:39;19.10;97.00
14016;DHT22;7083;48.854;9.158;2023-05-07T13:23:06;18.90;98.10
14016;DHT22;7083;48.854;9.158;2023-05-07T13:25:32;18.80;98.50
14016;DHT22;7083;48.854;9.158;2023-05-07T13:27:59;18.70;98.20
14016;DHT22;7083;48.854;9.158;2023-05-07T13:30:26;18.50;98.90
14016;DHT22;7083;48.854;9.158;2023-05-07T13:32:55;18.40;99.30
14016;DHT22;7083;48.854;9.158;2023-05-07T13:35:22;18.40;99.90
14016;DHT22;7083;48.854;9.158;2023-05-07T13:37:49;18.40;99.90
14016;DHT22;7083;48.854;9.158;2023-05-07T13:40:15;18.30;99.90
14016;DHT22;7083;48.854;9.158;2023-05-07T13:42:42;18.20;99.90
14016;DHT22;7083;48.854;9.158;2023-05-07T13:45:09;18.10;99.90
14016;DHT22;7083;48.854;9.158;2023-05-07T13:47:39;18.00;99.90
14016;DHT22;7083;48.854;9.158;2023-05-07T13:50:08;17.90;99.90
14016;DHT22;7083;48.854;9.158;2023-05-07T13:52:36;17.70;99.90
14016;DHT22;7083;48.854;9.158;2023-05-07T13:55:04;17.60;99.90
14016;DHT22;7083;48.854;9.158;2023-05-07T13:57:30;17.50;99.90
14016;DHT22;7083;48.854;9.158;2023-05-07T13:59:57;17.40;99.90
14016;DHT22;7083;48.854;9.158;2023-05-07T14:02:24;17.40;99.90
14016;DHT22;7083;48.854;9.158;2023-05-07T14:04:50;17.40;99.90
14016;DHT22;7083;48.854;9.158;2023-05-07T14:07:18;17.30;99.90
14016;DHT22;7083;48.854;9.158;2023-05-07T14:09:45;17.20;99.90
14016;DHT22;7083;48.854;9.158;2023-05-07T14:12:12;17.20;99.90
14016;DHT22;7083;48.854;9.158;2023-05-07T14:14:38;17.20;99.90
14016;DHT22;7083;48.854;9.158;2023-05-07T14:17:05;17.30;99.90
14016;DHT22;7083;48.854;9.158;2023-05-07T14:19:32;17.10;99.90
14016;DHT22;7083;48.854;9.158;2023-05-07T14:21:58;17.10;99.90
14016;DHT22;7083;48.854;9.158;2023-05-07T14:24:26;17.00;99.90
14016;DHT22;7083;48.854;9.158;2023-05-07T14:26:53;17.00;99.90
14016;DHT22;7083;48.854;9.158;2023-05-07T14:29:20;16.90;99.90
14016;DHT22;7083;48.854;9.158;2023-05-07T14:31:47;16.80;99.90
14016;DHT22;7083;48.854;9.158;2023-05-07T14:34:14;16.70;99.90
14016;DHT22;7083;48.854;9.158;2023-05-07T14:36:40;16.70;99.90
14016;DHT22;7083;48.854;9.158;2023-05-07T14:39:08;16.60;99.90
14016;DHT22;7083;48.854;9.158;2023-05-07T14:41:36;16.50;99.90
14016;DHT22;7083;48.854;9.158;2023-05-07T14:44:03;16.50;99.90
14016;DHT22;7083;48.854;9.158;2023-05-07T14:46:30;16.40;99.90
14016;DHT22;7083;48.854;9.158;2023-05-07T14:48:56;16.40;99.90
14016;DHT22;7083;48.854;9.158;2023-05-07T14:51:23;16.40;99.90
14016;DHT22;7083;48.854;9.158;2023-05-07T14:53:51;16.30;99.90
14016;DHT22;7083;48.854;9.158;2023-05-07T14:56:17;16.30;99.90
14016;DHT22;7083;48.854;9.158;2023-05-07T14:58:47;16.40;99.90
14016;DHT22;7083;48.854;9.158;2023-05-07T15:01:14;16.30;99.90
14016;DHT22;7083;48.854;9.158;2023-05-07T15:03:40;16.30;99.90
14016;DHT22;7083;48.854;9.158;2023-05-07T15:06:07;16.30;99.90
14016;DHT22;7083;48.854;9.158;2023-05-07T15:08:34;16.40;99.90
14016;DHT22;7083;48.854;9.158;2023-05-07T15:11:00;16.40;99.90
14016;DHT22;7083;48.854;9.158;2023-05-07T15:13:27;16.50;99.90
14016;DHT22;7083;48.854;9.158;2023-05-07T15:15:55;16.60;99.90
14016;DHT22;7083;48.854;9.158;2023-05-07T15:18:22;16.80;99.90
14016;DHT22;7083;48.854;9.158;2023-05-07T15:20:48;16.90;99.90
14016;DHT22;7083;48.854;9.158;2023-05-07T15:23:15;17.00;99.90
14016;DHT22;7083;48.854;9.158;2023-05-07T15:25:42;17.10;99.90
14016;DHT22;7083;48.854;9.158;2023-05-07T15:28:08;17.20;99.90
14016;DHT22;7083;48.854;9.158;2023-05-07T15:30:35;17.30;99.90
14016;DHT22;7083;48.854;9.158;2023-05-07T15:33:04;17.30;99.90
14016;DHT22;7083;48.854;9.158;2023-05-07T15:35:31;17.40;99.90
14016;DHT22;7083;48.854;9.158;2023-05-07T15:37:57;17.50;99.90
14016;DHT22;7083;48.854;9.158;2023-05-07T15:40:24;17.50;99.90
14016;DHT22;7083;48.854;9.158;2023-05-07T15:42:54;17.50;99.90
14016;DHT22;7083;48.854;9.158;2023-05-07T15:45:21;17.50;99.90
14016;DHT22;7083;48.854;9.158;2023-05-07T15:47:47;17.50;99.90
14016;DHT22;7083;48.854;9.158;2023-05-07T15:50:15;17.40;99.90
14016;DHT22;7083;48.854;9.158;2023-05-07T15:52:42;17.30;99.90